sensor_id;sensor_type;location;lat;lon;timestamp;P1;durP1;ratioP1;P2;durP2;ratioP2
65936;SDS011;52707;52.086;5.418;2023-02-13T00:02:18;39.80;;;21.80;;
65936;SDS011;52707;52.086;5.418;2023-02-13T00:04:44;41.08;;;21.98;;
65936;SDS011;52707;52.086;5.418;2023-02-13T00:07:11;41.35;;;21.63;;
65936;SDS011;52707;52.086;5.418;2023-02-13T00:09:37;37.88;;;21.60;;
65936;SDS011;52707;52.086;5.418;2023-02-13T00:12:05;36.78;;;20.00;;
65936;SDS011;52707;52.086;5.418;2023-02-13T00:14:35;36.38;;;19.98;;
65936;SDS011;52707;52.086;5.418;2023-02-13T00:17:01;41.72;;;20.95;;
65936;SDS011;52707;52.086;5.418;2023-02-13T00:19:28;37.42;;;19.80;;
65936;SDS011;52707;52.086;5.418;2023-02-13T00:21:54;41.63;;;21.33;;
65936;SDS011;52707;52.086;5.418;2023-02-13T00:24:21;36.20;;;20.20;;
65936;SDS011;52707;52.086;5.418;2023-02-13T00:26:47;35.80;;;20.10;;
65936;SDS011;52707;52.086;5.418;2023-02-13T00:29:13;44.50;;;21.42;;
65936;SDS011;52707;52.086;5.418;2023-02-13T00:31:40;42.40;;;20.50;;
65936;SDS011;52707;52.086;5.418;2023-02-13T00:34:06;39.28;;;20.40;;
65936;SDS011;52707;52.086;5.418;2023-02-13T00:36:32;39.85;;;20.25;;
65936;SDS011;52707;52.086;5.418;2023-02-13T00:38:59;35.17;;;19.58;;
65936;SDS011;52707;52.086;5.418;2023-02-13T00:41:25;36.58;;;19.45;;
65936;SDS011;52707;52.086;5.418;2023-02-13T00:43:51;37.33;;;19.80;;
65936;SDS011;52707;52.086;5.418;2023-02-13T00:46:18;38.53;;;19.88;;
65936;SDS011;52707;52.086;5.418;2023-02-13T00:48:44;39.90;;;20.95;;
65936;SDS011;52707;52.086;5.418;2023-02-13T00:51:11;39.83;;;19.70;;
65936;SDS011;52707;52.086;5.418;2023-02-13T00:53:37;41.17;;;20.10;;
65936;SDS011;52707;52.086;5.418;2023-02-13T00:56:04;37.47;;;19.98;;
65936;SDS011;52707;52.086;5.418;2023-02-13T00:58:31;35.47;;;19.48;;
65936;SDS011;52707;52.086;5.418;2023-02-13T01:00:57;35.83;;;19.63;;
65936;SDS011;52707;52.086;5.418;2023-02-13T01:03:24;33.90;;;19.67;;
65936;SDS011;52707;52.086;5.418;2023-02-13T01:05:51;37.38;;;20.85;;
65936;SDS011;52707;52.086;5.418;2023-02-13T01:08:18;39.72;;;20.73;;
65936;SDS011;52707;52.086;5.418;2023-02-13T01:10:45;36.58;;;20.27;;
65936;SDS011;52707;52.086;5.418;2023-02-13T01:13:12;34.22;;;19.42;;
65936;SDS011;52707;52.086;5.418;2023-02-13T01:15:38;33.85;;;18.77;;
65936;SDS011;52707;52.086;5.418;2023-02-13T01:18:05;33.85;;;18.92;;
65936;SDS011;52707;52.086;5.418;2023-02-13T01:20:31;35.80;;;19.27;;
65936;SDS011;52707;52.086;5.418;2023-02-13T01:22:58;32.75;;;18.15;;
65936;SDS011;52707;52.086;5.418;2023-02-13T01:25:24;36.55;;;18.90;;
65936;SDS011;52707;52.086;5.418;2023-02-13T01:27:51;39.25;;;20.17;;
65936;SDS011;52707;52.086;5.418;2023-02-13T01:30:17;34.28;;;19.10;;
65936;SDS011;52707;52.086;5.418;2023-02-13T01:32:44;38.72;;;20.10;;
65936;SDS011;52707;52.086;5.418;2023-02-13T01:35:11;36.05;;;20.30;;
65936;SDS011;52707;52.086;5.418;2023-02-13T01:37:38;42.00;;;19.50;;
65936;SDS011;52707;52.086;5.418;2023-02-13T01:40:05;32.15;;;18.38;;
65936;SDS011;52707;52.086;5.418;2023-02-13T01:42:32;36.45;;;19.58;;
65936;SDS011;52707;52.086;5.418;2023-02-13T01:45:21;35.45;;;18.60;;
65936;SDS011;52707;52.086;5.418;2023-02-13T01:50:22;34.92;;;18.48;;
65936;SDS011;52707;52.086;5.418;2023-02-13T01:52:51;35.28;;;19.27;;
65936;SDS011;52707;52.086;5.418;2023-02-13T01:55:18;36.22;;;19.15;;
65936;SDS011;52707;52.086;5.418;2023-02-13T01:57:46;36.10;;;18.80;;
65936;SDS011;52707;52.086;5.418;2023-02-13T02:00:14;32.47;;;17.90;;
65936;SDS011;52707;52.086;5.418;2023-02-13T02:02:52;33.17;;;19.52;;
65936;SDS011;52707;52.086;5.418;2023-02-13T02:05:20;36.95;;;18.58;;
65936;SDS011;52707;52.086;5.418;2023-02-13T02:07:49;37.45;;;19.52;;
65936;SDS011;52707;52.086;5.418;2023-02-13T02:10:17;32.33;;;18.10;;
65936;SDS011;52707;52.086;5.418;2023-02-13T02:13:04;36.97;;;19.40;;
65936;SDS011;52707;52.086;5.418;2023-02-13T02:15:31;33.58;;;17.88;;
65936;SDS011;52707;52.086;5.418;2023-02-13T02:17:58;36.65;;;18.45;;
65936;SDS011;52707;52.086;5.418;2023-02-13T02:25:45;33.63;;;18.27;;
65936;SDS011;52707;52.086;5.418;2023-02-13T02:31:18;35.88;;;18.52;;
65936;SDS011;52707;52.086;5.418;2023-02-13T02:39:01;35.90;;;19.25;;
65936;SDS011;52707;52.086;5.418;2023-02-13T02:41:31;39.90;;;18.85;;
65936;SDS011;52707;52.086;5.418;2023-02-13T02:44:24;36.38;;;18.55;;
65936;SDS011;52707;52.086;5.418;2023-02-13T02:49:38;36.00;;;19.08;;
65936;SDS011;52707;52.086;5.418;2023-02-13T02:53:07;35.50;;;18.17;;
65936;SDS011;52707;52.086;5.418;2023-02-13T02:55:34;35.25;;;18.45;;
65936;SDS011;52707;52.086;5.418;2023-02-13T03:01:07;40.15;;;20.65;;
65936;SDS011;52707;52.086;5.418;2023-02-13T03:03:54;34.17;;;18.10;;
65936;SDS011;52707;52.086;5.418;2023-02-13T03:06:51;35.08;;;18.95;;
65936;SDS011;52707;52.086;5.418;2023-02-13T03:09:19;33.72;;;18.58;;
65936;SDS011;52707;52.086;5.418;2023-02-13T03:12:05;37.58;;;19.58;;
65936;SDS011;52707;52.086;5.418;2023-02-13T03:14:52;47.00;;;19.85;;
65936;SDS011;52707;52.086;5.418;2023-02-13T03:17:18;36.22;;;19.25;;
65936;SDS011;52707;52.086;5.418;2023-02-13T03:20:09;35.80;;;19.50;;
65936;SDS011;52707;52.086;5.418;2023-02-13T03:23:14;37.00;;;18.88;;
65936;SDS011;52707;52.086;5.418;2023-02-13T03:25:48;37.22;;;19.38;;
65936;SDS011;52707;52.086;5.418;2023-02-13T03:28:37;34.25;;;18.27;;
65936;SDS011;52707;52.086;5.418;2023-02-13T03:31:45;34.65;;;18.27;;
65936;SDS011;52707;52.086;5.418;2023-02-13T03:34:16;39.78;;;19.77;;
65936;SDS011;52707;52.086;5.418;2023-02-13T03:42:22;41.45;;;19.63;;
65936;SDS011;52707;52.086;5.418;2023-02-13T03:44:52;35.28;;;18.15;;
65936;SDS011;52707;52.086;5.418;2023-02-13T03:47:40;42.78;;;19.30;;
65936;SDS011;52707;52.086;5.418;2023-02-13T03:50:08;34.45;;;19.25;;
65936;SDS011;52707;52.086;5.418;2023-02-13T03:55:14;34.90;;;19.55;;
65936;SDS011;52707;52.086;5.418;2023-02-13T03:58:02;38.53;;;19.45;;
65936;SDS011;52707;52.086;5.418;2023-02-13T04:00:51;38.17;;;19.15;;
65936;SDS011;52707;52.086;5.418;2023-02-13T04:03:23;38.25;;;19.83;;
65936;SDS011;52707;52.086;5.418;2023-02-13T04:06:02;35.53;;;19.17;;
65936;SDS011;52707;52.086;5.418;2023-02-13T04:08:29;34.30;;;19.02;;
65936;SDS011;52707;52.086;5.418;2023-02-13T04:10:57;41.75;;;19.90;;
65936;SDS011;52707;52.086;5.418;2023-02-13T04:13:35;36.20;;;19.52;;
65936;SDS011;52707;52.086;5.418;2023-02-13T04:18:30;38.63;;;19.80;;
65936;SDS011;52707;52.086;5.418;2023-02-13T04:21:01;37.72;;;19.33;;
65936;SDS011;52707;52.086;5.418;2023-02-13T04:23:28;38.72;;;20.17;;
65936;SDS011;52707;52.086;5.418;2023-02-13T04:25:55;41.08;;;19.48;;
65936;SDS011;52707;52.086;5.418;2023-02-13T04:28:22;36.08;;;19.35;;
65936;SDS011;52707;52.086;5.418;2023-02-13T04:30:48;34.47;;;19.48;;
65936;SDS011;52707;52.086;5.418;2023-02-13T04:33:15;37.78;;;19.38;;
65936;SDS011;52707;52.086;5.418;2023-02-13T04:35:42;35.42;;;19.15;;
65936;SDS011;52707;52.086;5.418;2023-02-13T04:38:08;35.28;;;19.83;;
65936;SDS011;52707;52.086;5.418;2023-02-13T04:40:34;40.92;;;20.80;;
65936;SDS011;52707;52.086;5.418;2023-02-13T04:43:01;37.05;;;19.92;;
65936;SDS011;52707;52.086;5.418;2023-02-13T04:45:27;35.15;;;18.90;;
65936;SDS011;52707;52.086;5.418;2023-02-13T04:47:54;37.83;;;20.38;;
65936;SDS011;52707;52.086;5.418;2023-02-13T04:50:21;39.65;;;20.15;;
65936;SDS011;52707;52.086;5.418;2023-02-13T04:52:49;39.22;;;20.25;;
65936;SDS011;52707;52.086;5.418;2023-02-13T04:55:17;40.53;;;20.65;;
65936;SDS011;52707;52.086;5.418;2023-02-13T04:57:44;39.45;;;19.60;;
65936;SDS011;52707;52.086;5.418;2023-02-13T05:00:10;38.55;;;21.38;;
65936;SDS011;52707;52.086;5.418;2023-02-13T05:02:37;37.70;;;20.52;;
65936;SDS011;52707;52.086;5.418;2023-02-13T05:05:04;38.78;;;19.73;;
65936;SDS011;52707;52.086;5.418;2023-02-13T05:07:31;38.65;;;19.73;;
65936;SDS011;52707;52.086;5.418;2023-02-13T05:09:57;43.67;;;20.02;;
65936;SDS011;52707;52.086;5.418;2023-02-13T05:12:23;35.38;;;18.95;;
65936;SDS011;52707;52.086;5.418;2023-02-13T05:14:50;36.22;;;20.42;;
65936;SDS011;52707;52.086;5.418;2023-02-13T05:17:16;40.92;;;20.50;;
65936;SDS011;52707;52.086;5.418;2023-02-13T05:19:42;37.70;;;18.90;;
65936;SDS011;52707;52.086;5.418;2023-02-13T05:22:09;37.35;;;19.48;;
65936;SDS011;52707;52.086;5.418;2023-02-13T05:24:54;37.65;;;20.35;;
65936;SDS011;52707;52.086;5.418;2023-02-13T05:27:20;39.33;;;20.33;;
65936;SDS011;52707;52.086;5.418;2023-02-13T05:29:46;36.75;;;19.63;;
65936;SDS011;52707;52.086;5.418;2023-02-13T05:32:13;41.45;;;20.17;;
65936;SDS011;52707;52.086;5.418;2023-02-13T05:34:39;37.75;;;20.30;;
65936;SDS011;52707;52.086;5.418;2023-02-13T05:37:05;40.17;;;20.13;;
65936;SDS011;52707;52.086;5.418;2023-02-13T05:39:32;37.60;;;20.35;;
65936;SDS011;52707;52.086;5.418;2023-02-13T05:41:58;39.60;;;20.88;;
65936;SDS011;52707;52.086;5.418;2023-02-13T05:44:24;46.65;;;20.70;;
65936;SDS011;52707;52.086;5.418;2023-02-13T05:46:51;39.35;;;19.95;;
65936;SDS011;52707;52.086;5.418;2023-02-13T05:49:18;39.10;;;20.58;;
65936;SDS011;52707;52.086;5.418;2023-02-13T05:51:44;38.15;;;19.20;;
65936;SDS011;52707;52.086;5.418;2023-02-13T05:54:12;41.92;;;19.52;;
65936;SDS011;52707;52.086;5.418;2023-02-13T05:56:38;41.75;;;21.00;;
65936;SDS011;52707;52.086;5.418;2023-02-13T05:59:04;38.25;;;20.33;;
65936;SDS011;52707;52.086;5.418;2023-02-13T06:01:31;37.85;;;20.23;;
65936;SDS011;52707;52.086;5.418;2023-02-13T06:03:57;40.60;;;20.70;;
65936;SDS011;52707;52.086;5.418;2023-02-13T06:06:26;39.05;;;20.67;;
65936;SDS011;52707;52.086;5.418;2023-02-13T06:08:52;38.88;;;20.67;;
65936;SDS011;52707;52.086;5.418;2023-02-13T06:11:19;40.90;;;21.65;;
65936;SDS011;52707;52.086;5.418;2023-02-13T06:13:45;49.13;;;22.00;;
65936;SDS011;52707;52.086;5.418;2023-02-13T06:16:12;44.85;;;21.73;;
65936;SDS011;52707;52.086;5.418;2023-02-13T06:18:38;49.90;;;21.08;;
65936;SDS011;52707;52.086;5.418;2023-02-13T06:21:05;45.92;;;21.40;;
65936;SDS011;52707;52.086;5.418;2023-02-13T06:23:32;47.20;;;22.15;;
65936;SDS011;52707;52.086;5.418;2023-02-13T06:26:05;45.42;;;22.08;;
65936;SDS011;52707;52.086;5.418;2023-02-13T06:28:32;49.25;;;22.92;;
65936;SDS011;52707;52.086;5.418;2023-02-13T06:30:58;47.10;;;22.67;;
65936;SDS011;52707;52.086;5.418;2023-02-13T06:33:25;48.28;;;23.33;;
65936;SDS011;52707;52.086;5.418;2023-02-13T06:35:51;46.45;;;22.42;;
65936;SDS011;52707;52.086;5.418;2023-02-13T06:38:18;47.17;;;23.30;;
65936;SDS011;52707;52.086;5.418;2023-02-13T06:40:45;47.75;;;23.63;;
65936;SDS011;52707;52.086;5.418;2023-02-13T06:43:11;53.97;;;23.23;;
65936;SDS011;52707;52.086;5.418;2023-02-13T06:45:37;46.00;;;22.33;;
65936;SDS011;52707;52.086;5.418;2023-02-13T06:48:04;46.83;;;23.17;;
65936;SDS011;52707;52.086;5.418;2023-02-13T06:50:30;44.63;;;23.15;;
65936;SDS011;52707;52.086;5.418;2023-02-13T06:52:56;50.20;;;23.08;;
65936;SDS011;52707;52.086;5.418;2023-02-13T06:55:23;54.25;;;23.45;;
65936;SDS011;52707;52.086;5.418;2023-02-13T06:57:49;56.50;;;23.70;;
65936;SDS011;52707;52.086;5.418;2023-02-13T07:00:16;53.08;;;24.98;;
65936;SDS011;52707;52.086;5.418;2023-02-13T07:02:43;52.55;;;24.55;;
65936;SDS011;52707;52.086;5.418;2023-02-13T07:05:10;49.72;;;23.90;;
65936;SDS011;52707;52.086;5.418;2023-02-13T07:07:37;56.42;;;23.08;;
65936;SDS011;52707;52.086;5.418;2023-02-13T07:10:04;56.17;;;24.50;;
65936;SDS011;52707;52.086;5.418;2023-02-13T07:12:34;49.50;;;24.27;;
65936;SDS011;52707;52.086;5.418;2023-02-13T07:15:02;56.80;;;24.83;;
65936;SDS011;52707;52.086;5.418;2023-02-13T07:17:28;54.65;;;24.00;;
65936;SDS011;52707;52.086;5.418;2023-02-13T07:19:56;56.97;;;23.23;;
65936;SDS011;52707;52.086;5.418;2023-02-13T07:22:22;52.67;;;24.25;;
65936;SDS011;52707;52.086;5.418;2023-02-13T07:24:49;49.92;;;23.25;;
65936;SDS011;52707;52.086;5.418;2023-02-13T07:27:15;54.72;;;23.15;;
65936;SDS011;52707;52.086;5.418;2023-02-13T07:29:41;43.75;;;23.63;;
65936;SDS011;52707;52.086;5.418;2023-02-13T07:32:08;49.10;;;23.25;;
65936;SDS011;52707;52.086;5.418;2023-02-13T07:34:34;45.50;;;23.10;;
65936;SDS011;52707;52.086;5.418;2023-02-13T07:37:00;56.35;;;24.23;;
65936;SDS011;52707;52.086;5.418;2023-02-13T07:39:26;49.25;;;25.42;;
65936;SDS011;52707;52.086;5.418;2023-02-13T07:41:53;48.97;;;24.63;;
65936;SDS011;52707;52.086;5.418;2023-02-13T07:44:19;46.70;;;23.75;;
65936;SDS011;52707;52.086;5.418;2023-02-13T07:46:45;46.38;;;23.73;;
65936;SDS011;52707;52.086;5.418;2023-02-13T07:49:12;48.33;;;24.42;;
65936;SDS011;52707;52.086;5.418;2023-02-13T07:51:38;51.38;;;24.02;;
65936;SDS011;52707;52.086;5.418;2023-02-13T07:54:04;44.88;;;24.63;;
65936;SDS011;52707;52.086;5.418;2023-02-13T07:56:31;53.70;;;25.23;;
65936;SDS011;52707;52.086;5.418;2023-02-13T07:58:57;51.03;;;24.92;;
65936;SDS011;52707;52.086;5.418;2023-02-13T08:01:23;52.83;;;24.88;;
65936;SDS011;52707;52.086;5.418;2023-02-13T08:03:50;56.50;;;26.50;;
65936;SDS011;52707;52.086;5.418;2023-02-13T08:06:16;50.20;;;25.10;;
65936;SDS011;52707;52.086;5.418;2023-02-13T08:08:43;49.35;;;25.90;;
65936;SDS011;52707;52.086;5.418;2023-02-13T08:11:21;48.30;;;25.92;;
65936;SDS011;52707;52.086;5.418;2023-02-13T08:14:06;44.13;;;24.33;;
65936;SDS011;52707;52.086;5.418;2023-02-13T08:16:33;50.67;;;25.73;;
65936;SDS011;52707;52.086;5.418;2023-02-13T08:18:59;50.35;;;26.00;;
65936;SDS011;52707;52.086;5.418;2023-02-13T08:21:26;48.17;;;24.90;;
65936;SDS011;52707;52.086;5.418;2023-02-13T08:23:52;49.40;;;25.10;;
65936;SDS011;52707;52.086;5.418;2023-02-13T08:26:18;45.63;;;25.10;;
65936;SDS011;52707;52.086;5.418;2023-02-13T08:28:44;49.08;;;24.13;;
65936;SDS011;52707;52.086;5.418;2023-02-13T08:31:11;49.33;;;25.58;;
65936;SDS011;52707;52.086;5.418;2023-02-13T08:33:37;51.75;;;24.73;;
65936;SDS011;52707;52.086;5.418;2023-02-13T08:36:05;49.20;;;24.60;;
65936;SDS011;52707;52.086;5.418;2023-02-13T08:38:32;46.13;;;24.67;;
65936;SDS011;52707;52.086;5.418;2023-02-13T08:40:58;40.97;;;24.02;;
65936;SDS011;52707;52.086;5.418;2023-02-13T08:43:25;48.78;;;25.13;;
65936;SDS011;52707;52.086;5.418;2023-02-13T08:45:51;42.75;;;23.80;;
65936;SDS011;52707;52.086;5.418;2023-02-13T08:48:17;42.30;;;24.75;;
65936;SDS011;52707;52.086;5.418;2023-02-13T08:50:43;44.63;;;23.80;;
65936;SDS011;52707;52.086;5.418;2023-02-13T08:53:10;42.22;;;24.00;;
65936;SDS011;52707;52.086;5.418;2023-02-13T08:55:36;40.65;;;23.90;;
65936;SDS011;52707;52.086;5.418;2023-02-13T08:58:03;40.80;;;23.02;;
65936;SDS011;52707;52.086;5.418;2023-02-13T09:00:29;40.80;;;22.73;;
65936;SDS011;52707;52.086;5.418;2023-02-13T09:03:02;41.53;;;23.40;;
65936;SDS011;52707;52.086;5.418;2023-02-13T09:05:29;38.45;;;22.02;;
65936;SDS011;52707;52.086;5.418;2023-02-13T09:08:00;39.58;;;22.90;;
65936;SDS011;52707;52.086;5.418;2023-02-13T09:10:27;38.00;;;21.80;;
65936;SDS011;52707;52.086;5.418;2023-02-13T09:12:54;40.00;;;21.38;;
65936;SDS011;52707;52.086;5.418;2023-02-13T09:15:20;36.08;;;20.65;;
65936;SDS011;52707;52.086;5.418;2023-02-13T09:17:46;34.67;;;20.38;;
65936;SDS011;52707;52.086;5.418;2023-02-13T09:20:13;35.53;;;19.45;;
65936;SDS011;52707;52.086;5.418;2023-02-13T09:22:40;31.42;;;19.25;;
65936;SDS011;52707;52.086;5.418;2023-02-13T09:25:06;32.03;;;19.80;;
65936;SDS011;52707;52.086;5.418;2023-02-13T09:27:33;34.97;;;19.52;;
65936;SDS011;52707;52.086;5.418;2023-02-13T09:30:00;30.48;;;19.52;;
65936;SDS011;52707;52.086;5.418;2023-02-13T09:32:27;33.30;;;18.42;;
65936;SDS011;52707;52.086;5.418;2023-02-13T09:34:53;29.67;;;18.60;;
65936;SDS011;52707;52.086;5.418;2023-02-13T09:37:20;30.05;;;18.10;;
65936;SDS011;52707;52.086;5.418;2023-02-13T09:39:48;29.05;;;18.58;;
65936;SDS011;52707;52.086;5.418;2023-02-13T09:42:16;30.27;;;18.65;;
65936;SDS011;52707;52.086;5.418;2023-02-13T09:44:44;32.40;;;18.35;;
65936;SDS011;52707;52.086;5.418;2023-02-13T09:52:39;32.03;;;19.95;;
65936;SDS011;52707;52.086;5.418;2023-02-13T09:55:15;31.73;;;19.45;;
65936;SDS011;52707;52.086;5.418;2023-02-13T09:57:43;33.13;;;19.48;;
65936;SDS011;52707;52.086;5.418;2023-02-13T10:00:21;32.77;;;19.37;;
65936;SDS011;52707;52.086;5.418;2023-02-13T10:08:08;36.03;;;18.48;;
65936;SDS011;52707;52.086;5.418;2023-02-13T10:10:40;29.17;;;18.65;;
65936;SDS011;52707;52.086;5.418;2023-02-13T10:13:18;28.75;;;19.13;;
65936;SDS011;52707;52.086;5.418;2023-02-13T10:16:03;30.60;;;17.90;;
65936;SDS011;52707;52.086;5.418;2023-02-13T10:18:42;34.50;;;19.63;;
65936;SDS011;52707;52.086;5.418;2023-02-13T10:21:10;42.53;;;19.40;;
65936;SDS011;52707;52.086;5.418;2023-02-13T10:23:39;26.30;;;16.73;;
65936;SDS011;52707;52.086;5.418;2023-02-13T10:26:11;29.30;;;18.08;;
65936;SDS011;52707;52.086;5.418;2023-02-13T10:28:46;27.42;;;17.80;;
65936;SDS011;52707;52.086;5.418;2023-02-13T10:31:38;30.15;;;17.70;;
65936;SDS011;52707;52.086;5.418;2023-02-13T10:34:04;25.52;;;17.83;;
65936;SDS011;52707;52.086;5.418;2023-02-13T11:00:13;26.88;;;17.05;;
65936;SDS011;52707;52.086;5.418;2023-02-13T11:02:41;21.58;;;15.05;;
65936;SDS011;52707;52.086;5.418;2023-02-13T11:07:37;25.13;;;16.13;;
65936;SDS011;52707;52.086;5.418;2023-02-13T11:10:12;21.27;;;15.75;;
65936;SDS011;52707;52.086;5.418;2023-02-13T11:12:38;26.70;;;16.30;;
65936;SDS011;52707;52.086;5.418;2023-02-13T11:15:06;23.15;;;16.42;;
65936;SDS011;52707;52.086;5.418;2023-02-13T11:17:33;24.83;;;15.70;;
65936;SDS011;52707;52.086;5.418;2023-02-13T11:20:02;20.92;;;14.82;;
65936;SDS011;52707;52.086;5.418;2023-02-13T11:22:38;23.50;;;16.15;;
65936;SDS011;52707;52.086;5.418;2023-02-13T11:25:20;19.70;;;14.57;;
65936;SDS011;52707;52.086;5.418;2023-02-13T11:27:48;20.60;;;14.48;;
65936;SDS011;52707;52.086;5.418;2023-02-13T11:32:59;23.70;;;15.52;;
65936;SDS011;52707;52.086;5.418;2023-02-13T11:35:28;17.95;;;14.27;;
65936;SDS011;52707;52.086;5.418;2023-02-13T11:38:10;25.95;;;15.68;;
65936;SDS011;52707;52.086;5.418;2023-02-13T11:40:37;17.00;;;14.30;;
65936;SDS011;52707;52.086;5.418;2023-02-13T11:43:06;19.15;;;15.27;;
65936;SDS011;52707;52.086;5.418;2023-02-13T11:45:33;16.45;;;14.23;;
65936;SDS011;52707;52.086;5.418;2023-02-13T11:47:59;23.33;;;14.85;;
65936;SDS011;52707;52.086;5.418;2023-02-13T11:58:04;16.90;;;13.43;;
65936;SDS011;52707;52.086;5.418;2023-02-13T12:00:46;16.10;;;13.82;;
65936;SDS011;52707;52.086;5.418;2023-02-13T12:06:01;18.70;;;14.00;;
65936;SDS011;52707;52.086;5.418;2023-02-13T12:08:28;16.58;;;14.35;;
65936;SDS011;52707;52.086;5.418;2023-02-13T12:10:55;21.60;;;13.30;;
65936;SDS011;52707;52.086;5.418;2023-02-13T12:13:26;16.88;;;13.57;;
65936;SDS011;52707;52.086;5.418;2023-02-13T12:15:58;17.95;;;14.15;;
65936;SDS011;52707;52.086;5.418;2023-02-13T12:24:00;16.45;;;14.30;;
65936;SDS011;52707;52.086;5.418;2023-02-13T12:26:30;21.42;;;14.75;;
65936;SDS011;52707;52.086;5.418;2023-02-13T12:29:04;29.27;;;15.77;;
65936;SDS011;52707;52.086;5.418;2023-02-13T12:31:34;17.52;;;15.63;;
65936;SDS011;52707;52.086;5.418;2023-02-13T12:41:48;16.73;;;14.35;;
65936;SDS011;52707;52.086;5.418;2023-02-13T12:57:10;15.55;;;13.95;;
65936;SDS011;52707;52.086;5.418;2023-02-13T12:59:50;18.20;;;14.98;;
65936;SDS011;52707;52.086;5.418;2023-02-13T13:05:29;21.45;;;15.57;;
65936;SDS011;52707;52.086;5.418;2023-02-13T13:10:39;18.35;;;15.95;;
65936;SDS011;52707;52.086;5.418;2023-02-13T13:13:13;22.77;;;20.48;;
65936;SDS011;52707;52.086;5.418;2023-02-13T13:18:31;26.65;;;24.23;;
65936;SDS011;52707;52.086;5.418;2023-02-13T13:21:12;21.35;;;19.15;;
65936;SDS011;52707;52.086;5.418;2023-02-13T13:26:37;19.60;;;13.45;;
65936;SDS011;52707;52.086;5.418;2023-02-13T13:29:05;17.33;;;13.77;;
65936;SDS011;52707;52.086;5.418;2023-02-13T13:31:33;24.60;;;13.85;;
65936;SDS011;52707;52.086;5.418;2023-02-13T13:34:00;20.60;;;14.85;;
65936;SDS011;52707;52.086;5.418;2023-02-13T13:36:44;17.00;;;14.18;;
65936;SDS011;52707;52.086;5.418;2023-02-13T13:41:49;20.67;;;14.13;;
65936;SDS011;52707;52.086;5.418;2023-02-13T13:44:39;20.48;;;14.43;;
65936;SDS011;52707;52.086;5.418;2023-02-13T13:49:50;18.92;;;13.90;;
65936;SDS011;52707;52.086;5.418;2023-02-13T13:54:49;18.73;;;14.37;;
65936;SDS011;52707;52.086;5.418;2023-02-13T13:57:19;23.23;;;14.60;;
65936;SDS011;52707;52.086;5.418;2023-02-13T14:07:19;23.92;;;14.85;;
65936;SDS011;52707;52.086;5.418;2023-02-13T14:09:46;21.90;;;14.10;;
65936;SDS011;52707;52.086;5.418;2023-02-13T14:14:49;19.88;;;14.55;;
65936;SDS011;52707;52.086;5.418;2023-02-13T14:20:02;22.80;;;16.35;;
65936;SDS011;52707;52.086;5.418;2023-02-13T14:25:24;22.63;;;15.75;;
65936;SDS011;52707;52.086;5.418;2023-02-13T14:28:37;20.60;;;14.40;;
65936;SDS011;52707;52.086;5.418;2023-02-13T14:30:38;20.95;;;14.57;;
65936;SDS011;52707;52.086;5.418;2023-02-13T14:33:06;22.10;;;14.65;;
65936;SDS011;52707;52.086;5.418;2023-02-13T14:35:34;22.30;;;14.60;;
65936;SDS011;52707;52.086;5.418;2023-02-13T14:38:05;21.05;;;14.38;;
65936;SDS011;52707;52.086;5.418;2023-02-13T14:40:51;23.73;;;15.05;;
65936;SDS011;52707;52.086;5.418;2023-02-13T14:43:19;19.88;;;14.80;;
65936;SDS011;52707;52.086;5.418;2023-02-13T14:45:48;25.08;;;14.40;;
65936;SDS011;52707;52.086;5.418;2023-02-13T14:48:16;26.60;;;15.63;;
65936;SDS011;52707;52.086;5.418;2023-02-13T14:50:48;24.33;;;15.02;;
65936;SDS011;52707;52.086;5.418;2023-02-13T14:53:17;25.55;;;15.63;;
65936;SDS011;52707;52.086;5.418;2023-02-13T14:55:45;22.23;;;14.90;;
65936;SDS011;52707;52.086;5.418;2023-02-13T14:58:14;20.75;;;14.82;;
65936;SDS011;52707;52.086;5.418;2023-02-13T15:00:43;21.52;;;15.68;;
65936;SDS011;52707;52.086;5.418;2023-02-13T15:05:50;20.58;;;15.23;;
65936;SDS011;52707;52.086;5.418;2023-02-13T15:08:18;22.85;;;15.23;;
65936;SDS011;52707;52.086;5.418;2023-02-13T15:10:52;19.42;;;14.23;;
65936;SDS011;52707;52.086;5.418;2023-02-13T15:13:22;18.55;;;14.15;;
65936;SDS011;52707;52.086;5.418;2023-02-13T15:18:19;22.63;;;14.82;;
65936;SDS011;52707;52.086;5.418;2023-02-13T15:20:46;22.85;;;14.93;;
65936;SDS011;52707;52.086;5.418;2023-02-13T15:23:24;20.63;;;14.50;;
65936;SDS011;52707;52.086;5.418;2023-02-13T15:25:55;20.83;;;15.27;;
65936;SDS011;52707;52.086;5.418;2023-02-13T15:28:22;20.15;;;14.77;;
65936;SDS011;52707;52.086;5.418;2023-02-13T15:33:22;27.08;;;15.60;;
65936;SDS011;52707;52.086;5.418;2023-02-13T15:35:56;25.23;;;15.13;;
65936;SDS011;52707;52.086;5.418;2023-02-13T15:38:27;22.27;;;15.48;;
65936;SDS011;52707;52.086;5.418;2023-02-13T15:41:01;24.27;;;16.05;;
65936;SDS011;52707;52.086;5.418;2023-02-13T15:43:41;26.85;;;15.85;;
65936;SDS011;52707;52.086;5.418;2023-02-13T15:46:28;28.67;;;15.07;;
65936;SDS011;52707;52.086;5.418;2023-02-13T15:48:57;23.10;;;15.95;;
65936;SDS011;52707;52.086;5.418;2023-02-13T15:51:25;22.13;;;15.05;;
65936;SDS011;52707;52.086;5.418;2023-02-13T15:53:53;23.33;;;16.65;;
65936;SDS011;52707;52.086;5.418;2023-02-13T15:56:19;23.80;;;16.73;;
65936;SDS011;52707;52.086;5.418;2023-02-13T15:58:46;25.17;;;16.17;;
65936;SDS011;52707;52.086;5.418;2023-02-13T16:01:12;23.38;;;15.88;;
65936;SDS011;52707;52.086;5.418;2023-02-13T16:03:39;28.17;;;15.23;;
65936;SDS011;52707;52.086;5.418;2023-02-13T16:06:06;27.52;;;16.40;;
65936;SDS011;52707;52.086;5.418;2023-02-13T16:08:38;20.95;;;15.50;;
65936;SDS011;52707;52.086;5.418;2023-02-13T16:13:35;25.15;;;16.20;;
65936;SDS011;52707;52.086;5.418;2023-02-13T16:16:02;26.67;;;16.48;;
65936;SDS011;52707;52.086;5.418;2023-02-13T16:18:33;23.08;;;16.75;;
65936;SDS011;52707;52.086;5.418;2023-02-13T16:21:00;23.02;;;16.58;;
65936;SDS011;52707;52.086;5.418;2023-02-13T16:23:29;24.67;;;16.70;;
65936;SDS011;52707;52.086;5.418;2023-02-13T16:25:59;27.98;;;17.13;;
65936;SDS011;52707;52.086;5.418;2023-02-13T16:28:27;23.17;;;16.15;;
65936;SDS011;52707;52.086;5.418;2023-02-13T16:30:58;31.15;;;18.60;;
65936;SDS011;52707;52.086;5.418;2023-02-13T16:33:29;25.80;;;16.83;;
65936;SDS011;52707;52.086;5.418;2023-02-13T16:40:55;29.88;;;18.85;;
65936;SDS011;52707;52.086;5.418;2023-02-13T16:48:42;27.10;;;17.48;;
65936;SDS011;52707;52.086;5.418;2023-02-13T16:51:09;28.55;;;16.45;;
65936;SDS011;52707;52.086;5.418;2023-02-13T16:53:36;25.92;;;16.58;;
65936;SDS011;52707;52.086;5.418;2023-02-13T16:56:05;30.88;;;17.55;;
65936;SDS011;52707;52.086;5.418;2023-02-13T16:58:32;26.98;;;15.90;;
65936;SDS011;52707;52.086;5.418;2023-02-13T17:00:58;26.67;;;16.98;;
65936;SDS011;52707;52.086;5.418;2023-02-13T17:03:30;31.67;;;17.33;;
65936;SDS011;52707;52.086;5.418;2023-02-13T17:06:00;29.90;;;17.10;;
65936;SDS011;52707;52.086;5.418;2023-02-13T17:08:26;35.13;;;17.13;;
65936;SDS011;52707;52.086;5.418;2023-02-13T17:11:06;30.58;;;17.45;;
65936;SDS011;52707;52.086;5.418;2023-02-13T17:13:33;23.63;;;16.05;;
65936;SDS011;52707;52.086;5.418;2023-02-13T17:15:59;28.13;;;17.42;;
65936;SDS011;52707;52.086;5.418;2023-02-13T17:18:26;26.65;;;16.77;;
65936;SDS011;52707;52.086;5.418;2023-02-13T17:20:52;38.25;;;17.17;;